| time (UTC) | temp C | wind direction | speed KPH | gust KPH | rain 1hr cm | rain 24hr cm | rain mn cm | humidity % | barometer mb |
| 20260831025912 | -17 | 144 | 1.6 | 1.6 | 0.00 | 0.00 | 0.00 | 1021.6 | |
| 20260831025412 | -17 | 89 | 3.2 | 4.8 | 0.00 | 0.00 | 0.00 | 1021.5 | |
| 20260831024908 | -17 | 307 | 0.0 | 1.6 | 0.00 | 0.00 | 0.00 | 1021.6 | |
| 20260831024407 | -17 | 333 | 3.2 | 3.2 | 0.00 | 0.00 | 0.00 | 1021.3 | |
| 20260831023908 | -17 | 358 | 1.6 | 3.2 | 0.00 | 0.00 | 0.00 | 1021.3 | |
| 20260831023406 | -17 | 348 | 1.6 | 1.6 | 0.00 | 0.00 | 0.00 | 1020.9 | |
| 20260831022901 | -17 | 63 | 3.2 | 3.2 | 0.00 | 0.00 | 0.00 | 1021.2 | |
| 20260831022359 | -17 | 36 | 0.0 | 1.6 | 0.00 | 0.00 | 0.00 | 1021.0 | |
| 20260831021855 | -17 | 4 | 4.8 | 4.8 | 0.00 | 0.00 | 0.00 | 1020.8 | |
| 20260831021354 | -17 | 41 | 4.8 | 8.0 | 0.00 | 0.00 | 0.00 | 1020.7 | |
| 20260831020850 | -17 | 14 | 1.6 | 3.2 | 0.00 | 0.00 | 0.00 | 1020.8 | |
| 20260831020350 | -17 | 54 | 6.4 | 8.0 | 0.00 | 0.00 | 0.00 | 1020.8 | |
| 20260831015845 | -17 | 62 | 8.0 | 9.7 | 0.00 | 0.00 | 0.00 | 1020.4 | |
| 20260831015341 | -17 | 235 | 1.6 | 1.6 | 0.00 | 0.00 | 0.00 | 1020.5 | |
| 20260831014841 | -17 | 20 | 4.8 | 9.7 | 0.00 | 0.00 | 0.00 | 1020.4 | |
| 20260831014335 | -17 | 303 | 4.8 | 4.8 | 0.00 | 0.00 | 0.00 | 1020.4 | |
| 20260831013832 | -17 | 301 | 0.0 | 1.6 | 0.00 | 0.00 | 0.00 | 1020.2 | |
| 20260831013332 | -17 | 314 | 0.0 | 0.0 | 0.00 | 0.00 | 0.00 | 1020.5 | |
| 20260831012826 | -17 | 22 | 1.6 | 1.6 | 0.00 | 0.00 | 0.00 | 1020.3 | |
| 20260831012322 | -17 | 317 | 1.6 | 3.2 | 0.00 | 0.00 | 0.00 | 1020.3 | |
| 20260831011821 | -17 | 15 | 4.8 | 8.0 | 0.00 | 0.00 | 0.00 | 1020.4 | |
| 20260831011317 | -17 | 51 | 0.0 | 1.6 | 0.00 | 0.00 | 0.00 | 1020.2 | |
| 20260831010813 | -17 | 81 | 1.6 | 1.6 | 0.00 | 0.00 | 0.00 | 1020.1 | |
| 20260831010312 | -17 | 55 | 1.6 | 3.2 | 0.00 | 0.00 | 0.00 | 1019.8 | |
| 20260831005808 | -17 | 279 | 3.2 | 3.2 | 0.00 | 0.00 | 0.00 | 1020.0 | |
| 20260831005306 | -17 | 30 | 0.0 | 0.0 | 0.00 | 0.00 | 0.00 | 1019.8 | |
| 20260831004804 | -17 | 32 | 0.0 | 0.0 | 0.00 | 0.00 | 0.00 | 1019.7 | |
| 20260831004300 | -17 | 13 | 1.6 | 1.6 | 0.00 | 0.00 | 0.00 | 1019.4 | |
| 20260831003750 | -17 | 39 | 1.6 | 1.6 | 0.00 | 0.00 | 0.00 | 1019.4 | |
| 20260831003246 | -17 | 59 | 3.2 | 3.2 | 0.00 | 0.00 | 0.00 | 1019.3 | |
| 20260831002745 | -17 | 355 | 3.2 | 4.8 | 0.00 | 0.00 | 0.00 | 1019.4 | |
| 20260831002245 | -17 | 353 | 4.8 | 8.0 | 0.00 | 0.00 | 0.00 | 1019.0 | |
| 20260831001741 | -17 | 89 | 0.0 | 1.6 | 0.00 | 0.00 | 0.00 | 1019.1 | |
| 20260831001235 | -17 | 293 | 0.0 | 0.0 | 0.00 | 0.00 | 0.00 | 1019.1 | |
| 20260831000733 | -17 | 63 | 3.2 | 3.2 | 0.00 | 0.00 | 0.00 | 1018.9 | |
| 20260831000227 | -17 | 298 | 0.0 | 1.6 | 0.00 | 0.00 | 0.00 | 1018.9 | |
| 20260830235726 | -17 | 79 | 6.4 | 9.7 | 0.00 | 0.00 | 0.00 | 1019.0 | |
| 20260830235221 | -17 | 265 | 1.6 | 1.6 | 0.00 | 0.00 | 0.00 | 1018.7 | |
| 20260830234716 | -17 | 120 | 0.0 | 0.0 | 0.00 | 0.00 | 0.00 | 1018.8 | |
| 20260830234212 | -17 | 107 | 1.6 | 1.6 | 0.00 | 0.00 | 0.00 | 1018.3 | |
| 20260830233708 | -17 | 49 | 1.6 | 3.2 | 0.00 | 0.00 | 0.00 | 1018.5 | |
| 20260830233203 | -17 | 348 | 0.0 | 0.0 | 0.00 | 0.00 | 0.00 | 1018.7 | |
| 20260830232658 | -17 | 347 | 0.0 | 0.0 | 0.00 | 0.00 | 0.00 | 1018.5 | |
| 20260830232154 | -17 | 207 | 1.6 | 1.6 | 0.00 | 0.00 | 0.00 | 1018.4 | |
| 20260830231651 | -17 | 145 | 3.2 | 3.2 | 0.00 | 0.00 | 0.00 | 1018.6 | |
| 20260830231150 | -17 | 62 | 3.2 | 3.2 | 0.00 | 0.00 | 0.00 | 1018.4 | |
| 20260830230645 | -17 | 52 | 3.2 | 3.2 | 0.00 | 0.00 | 0.00 | 1018.3 | |
| 20260830230145 | -17 | 359 | 3.2 | 3.2 | 0.00 | 0.00 | 0.00 | 1018.4 | |
| 20260830225639 | -17 | 352 | 0.0 | 0.0 | 0.00 | 0.00 | 0.00 | 1018.4 | |
| 20260830225134 | -17 | 84 | 1.6 | 1.6 | 0.00 | 0.00 | 0.00 | 1018.2 | |
| 20260830224633 | -17 | 118 | 3.2 | 3.2 | 0.00 | 0.00 | 0.00 | 1018.3 | |
| 20260830224129 | -17 | 86 | 4.8 | 8.0 | 0.00 | 0.00 | 0.00 | 1018.3 | |
| 20260830223627 | -17 | 112 | 0.0 | 1.6 | 0.00 | 0.00 | 0.00 | 1018.2 | |
| 20260830223126 | -17 | 278 | 1.6 | 1.6 | 0.00 | 0.00 | 0.00 | 1018.2 | |
| 20260830222626 | -17 | 96 | 3.2 | 3.2 | 0.00 | 0.00 | 0.00 | 1018.3 | |
| 20260830222122 | -17 | 126 | 1.6 | 1.6 | 0.00 | 0.00 | 0.00 | 1018.4 | |
| 20260830221618 | -17 | 308 | 1.6 | 1.6 | 0.00 | 0.00 | 0.00 | 1018.6 | |
| 20260830221113 | -17 | 26 | 9.7 | 12.9 | 0.00 | 0.00 | 0.00 | 1018.4 | |
| 20260830220609 | -17 | 40 | 1.6 | 1.6 | 0.00 | 0.00 | 0.00 | 1018.5 | |
| 20260830220108 | -17 | 336 | 4.8 | 8.0 | 0.00 | 0.00 | 0.00 | 1018.4 | |
| 20260830215607 | -17 | 3 | 1.6 | 3.2 | 0.00 | 0.00 | 0.00 | 1018.5 | |
| 20260830215101 | -17 | 99 | 4.8 | 8.0 | 0.00 | 0.00 | 0.00 | 1018.7 | |
| 20260830214556 | -17 | 168 | 6.4 | 11.3 | 0.00 | 0.00 | 0.00 | 1018.7 | |
| 20260830214051 | -17 | 167 | 0.0 | 0.0 | 0.00 | 0.00 | 0.00 | 1018.6 | |
| 20260830213551 | -17 | 77 | 3.2 | 3.2 | 0.00 | 0.00 | 0.00 | 1018.7 | |
| 20260830213047 | -17 | 322 | 3.2 | 4.8 | 0.00 | 0.00 | 0.00 | 1018.9 | |
| 20260830212542 | -17 | 16 | 3.2 | 4.8 | 0.00 | 0.00 | 0.00 | 1018.9 | |
| 20260830212037 | -17 | 141 | 1.6 | 1.6 | 0.00 | 0.00 | 0.00 | 1018.9 | |
| 20260830211532 | -17 | 143 | 3.2 | 4.8 | 0.00 | 0.00 | 0.00 | 1018.8 | |
| 20260830211032 | -17 | 278 | 1.6 | 1.6 | 0.00 | 0.00 | 0.00 | 1018.7 | |
| 20260830210527 | -17 | 258 | 1.6 | 1.6 | 0.00 | 0.00 | 0.00 | 1018.8 | |
| 20260830210026 | -17 | 264 | 4.8 | 8.0 | 0.00 | 0.00 | 0.00 | 1018.7 | |
| 20260830205524 | -17 | 351 | 4.8 | 8.0 | 0.00 | 0.00 | 0.00 | 1018.8 | |
| 20260830205020 | -17 | 278 | 0.0 | 0.0 | 0.00 | 0.00 | 0.00 | 1018.8 | |
| 20260830204519 | -17 | 30 | 3.2 | 8.0 | 0.00 | 0.00 | 0.00 | 1018.7 | |
| 20260830204018 | -17 | 336 | 1.6 | 1.6 | 0.00 | 0.00 | 0.00 | 1018.9 | |
| 20260830203515 | -17 | 76 | 1.6 | 1.6 | 0.00 | 0.00 | 0.00 | 1018.7 | |
| 20260830203010 | -17 | 288 | 1.6 | 1.6 | 0.00 | 0.00 | 0.00 | 1018.8 | |
| 20260830202504 | -17 | 321 | 1.6 | 1.6 | 0.00 | 0.00 | 0.00 | 1018.8 | |
| 20260830202000 | -17 | 104 | 1.6 | 1.6 | 0.00 | 0.00 | 0.00 | 1018.8 | |
| 20260830201459 | -17 | 19 | 4.8 | 8.0 | 0.00 | 0.00 | 0.00 | 1018.9 | |
| 20260830200954 | -17 | 208 | 1.6 | 1.6 | 0.00 | 0.00 | 0.00 | 1018.9 | |
| 20260830200449 | -17 | 325 | 1.6 | 1.6 | 0.00 | 0.00 | 0.00 | 1018.9 | |
| 20260830195948 | -17 | 99 | 1.6 | 3.2 | 0.00 | 0.00 | 0.00 | 1019.2 | |
| 20260830195444 | -17 | 320 | 0.0 | 1.6 | 0.00 | 0.00 | 0.00 | 1019.4 | |
| 20260830194942 | -17 | 319 | 1.6 | 1.6 | 0.00 | 0.00 | 0.00 | 1019.0 | |
| 20260830194442 | -17 | 113 | 3.2 | 3.2 | 0.00 | 0.00 | 0.00 | 1019.2 | |
| 20260830193941 | -17 | 55 | 3.2 | 3.2 | 0.00 | 0.00 | 0.00 | 1019.1 | |
| 20260830193440 | -17 | 345 | 1.6 | 3.2 | 0.00 | 0.00 | 0.00 | 1019.4 | |
| 20260830192936 | -17 | 320 | 0.0 | 0.0 | 0.00 | 0.00 | 0.00 | 1019.3 | |
| 20260830192431 | -17 | 67 | 3.2 | 4.8 | 0.00 | 0.00 | 0.00 | 1019.4 | |
| 20260830191926 | -17 | 128 | 3.2 | 4.8 | 0.00 | 0.00 | 0.00 | 1019.5 | |
| 20260830191426 | -17 | 310 | 0.0 | 1.6 | 0.00 | 0.00 | 0.00 | 1019.6 | |
| 20260830190922 | -17 | 27 | 0.0 | 1.6 | 0.00 | 0.00 | 0.00 | 1019.4 | |
| 20260830190417 | -17 | 78 | 1.6 | 3.2 | 0.00 | 0.00 | 0.00 | 1019.5 | |
| 20260830185916 | -17 | 218 | 0.0 | 0.0 | 0.00 | 0.00 | 0.00 | 1019.5 | |
| 20260830185411 | -17 | 269 | 0.0 | 1.6 | 0.00 | 0.00 | 0.00 | 1019.7 | |
| 20260830184906 | -17 | 38 | 4.8 | 4.8 | 0.00 | 0.00 | 0.00 | 1019.7 | |
| 20260830184405 | -17 | 83 | 1.6 | 3.2 | 0.00 | 0.00 | 0.00 | 1019.6 | |
| 20260830183900 | -17 | 327 | 1.6 | 4.8 | 0.00 | 0.00 | 0.00 | 1019.7 | |
| 20260830183400 | -17 | 215 | 1.6 | 1.6 | 0.00 | 0.00 | 0.00 | 1019.7 | |
| 20260830182855 | -17 | 319 | 3.2 | 3.2 | 0.00 | 0.00 | 0.00 | 1019.8 | |
| 20260830182351 | -17 | 269 | 1.6 | 1.6 | 0.00 | 0.00 | 0.00 | 1020.0 | |
| 20260830181847 | -17 | 138 | 1.6 | 1.6 | 0.00 | 0.00 | 0.00 | 1020.3 | |
| 20260830181342 | -17 | 76 | 1.6 | 1.6 | 0.00 | 0.00 | 0.00 | 1019.9 | |
| 20260830180837 | -17 | 187 | 1.6 | 1.6 | 0.00 | 0.00 | 0.00 | 1020.3 | |
| 20260830180337 | -17 | 155 | 3.2 | 4.8 | 0.00 | 0.00 | 0.00 | 1020.2 | |
| 20260830175836 | -17 | 313 | 0.0 | 0.0 | 0.00 | 0.00 | 0.00 | 1020.3 | |
| 20260830175330 | -17 | 13 | 3.2 | 4.8 | 0.00 | 0.00 | 0.00 | 1020.4 | |
| 20260830174826 | -17 | 211 | 3.2 | 4.8 | 0.00 | 0.00 | 0.00 | 1020.4 | |
| 20260830174321 | -17 | 317 | 0.0 | 1.6 | 0.00 | 0.00 | 0.00 | 1020.3 | |
| 20260830173821 | -17 | 84 | 0.0 | 1.6 | 0.00 | 0.00 | 0.00 | 1020.3 | |
| 20260830173316 | -17 | 4 | 3.2 | 4.8 | 0.00 | 0.00 | 0.00 | 1020.6 | |
| 20260830172813 | -17 | 299 | 0.0 | 0.0 | 0.00 | 0.00 | 0.00 | 1020.6 | |
| 20260830172309 | -17 | 208 | 1.6 | 3.2 | 0.00 | 0.00 | 0.00 | 1020.5 | |
| 20260830171805 | -17 | 188 | 3.2 | 3.2 | 0.00 | 0.00 | 0.00 | 1020.6 | |
| 20260830171300 | -17 | 80 | 3.2 | 3.2 | 0.00 | 0.00 | 0.00 | 1020.7 | |
| 20260830170754 | -17 | 179 | 4.8 | 8.0 | 0.00 | 0.00 | 0.00 | 1020.7 | |
| 20260830170254 | -17 | 8 | 1.6 | 3.2 | 0.00 | 0.00 | 0.00 | 1020.6 | |
| 20260830165752 | -17 | 139 | 1.6 | 3.2 | 0.00 | 0.00 | 0.00 | 1020.7 | |
| 20260830165249 | -17 | 126 | 3.2 | 3.2 | 0.00 | 0.00 | 0.00 | 1020.7 | |
| 20260830164745 | -17 | 162 | 1.6 | 1.6 | 0.00 | 0.00 | 0.00 | 1021.0 | |
| 20260830164241 | -17 | 240 | 0.0 | 0.0 | 0.00 | 0.00 | 0.00 | 1020.8 | |
| 20260830163737 | -17 | 165 | 3.2 | 4.8 | 0.00 | 0.00 | 0.00 | 1020.8 | |
| 20260830163233 | -17 | 267 | 6.4 | 9.7 | 0.00 | 0.00 | 0.00 | 1020.8 | |
| 20260830162727 | -17 | 260 | 4.8 | 8.0 | 0.00 | 0.00 | 0.00 | 1020.7 | |
| 20260830162223 | -17 | 213 | 4.8 | 4.8 | 0.00 | 0.00 | 0.00 | 1020.6 | |
| 20260830161718 | -17 | 196 | 4.8 | 4.8 | 0.00 | 0.00 | 0.00 | 1020.7 | |
| 20260830161212 | -17 | 150 | 4.8 | 4.8 | 0.00 | 0.00 | 0.00 | 1020.8 | |
| 20260830160708 | -17 | 51 | 4.8 | 9.7 | 0.00 | 0.00 | 0.00 | 1021.2 | |
| 20260830160203 | -17 | 58 | 1.6 | 1.6 | 0.00 | 0.00 | 0.00 | 1021.0 | |
| 20260830155659 | -17 | 286 | 0.0 | 1.6 | 0.00 | 0.00 | 0.00 | 1020.8 | |
| 20260830155155 | -17 | 326 | 4.8 | 4.8 | 0.00 | 0.00 | 0.00 | 1020.8 | |
| 20260830154650 | -17 | 218 | 1.6 | 1.6 | 0.00 | 0.00 | 0.00 | 1020.8 | |
| 20260830154146 | -17 | 279 | 0.0 | 0.0 | 0.00 | 0.00 | 0.00 | 1020.9 | |
| 20260830153642 | -17 | 14 | 1.6 | 1.6 | 0.00 | 0.00 | 0.00 | 1020.8 | |
| 20260830153142 | -17 | 239 | 4.8 | 4.8 | 0.00 | 0.00 | 0.00 | 1020.9 | |
| 20260830152641 | -17 | 194 | 3.2 | 4.8 | 0.00 | 0.00 | 0.00 | 1020.7 | |
| 20260830152140 | -17 | 254 | 6.4 | 8.0 | 0.00 | 0.00 | 0.00 | 1020.9 | |
| 20260830151636 | -17 | 39 | 1.6 | 3.2 | 0.00 | 0.00 | 0.00 | 1020.9 | |
| 20260830151136 | -17 | 212 | 3.2 | 3.2 | 0.00 | 0.00 | 0.00 | 1021.0 | |
| 20260830150636 | -17 | 225 | 4.8 | 8.0 | 0.00 | 0.00 | 0.00 | 1020.8 | |
| 20260830150130 | -17 | 206 | 8.0 | 11.3 | 0.00 | 0.00 | 0.00 | 1020.7 | |
| 20260830145630 | -17 | 255 | 4.8 | 8.0 | 0.00 | 0.00 | 0.00 | 1020.8 | |
| 20260830145125 | -17 | 186 | 3.2 | 4.8 | 0.00 | 0.00 | 0.00 | 1020.8 | |
| 20260830144620 | -17 | 215 | 4.8 | 8.0 | 0.00 | 0.00 | 0.00 | 1021.2 | |
| 20260830144116 | -17 | 331 | 4.8 | 4.8 | 0.00 | 0.00 | 0.00 | 1021.0 | |
| 20260830143612 | -17 | 225 | 4.8 | 8.0 | 0.00 | 0.00 | 0.00 | 1021.0 | |
| 20260830143110 | -17 | 164 | 1.6 | 3.2 | 0.00 | 0.00 | 0.00 | 1021.2 | |
| 20260830142606 | -17 | 333 | 1.6 | 1.6 | 0.00 | 0.00 | 0.00 | 1021.2 | |
| 20260830142100 | -17 | 180 | 4.8 | 4.8 | 0.00 | 0.00 | 0.00 | 1021.2 | |
| 20260830141556 | -17 | 203 | 1.6 | 3.2 | 0.00 | 0.00 | 0.00 | 1021.0 | |
| 20260830141051 | -17 | 197 | 0.0 | 1.6 | 0.00 | 0.00 | 0.00 | 1021.0 | |
| 20260830140551 | -17 | 210 | 4.8 | 8.0 | 0.00 | 0.00 | 0.00 | 1020.7 | |
| 20260830140047 | -17 | 252 | 1.6 | 1.6 | 0.00 | 0.00 | 0.00 | 1020.7 | |
| 20260830135541 | -17 | 180 | 4.8 | 4.8 | 0.00 | 0.00 | 0.00 | 1020.7 | |
| 20260830135036 | -17 | 150 | 3.2 | 3.2 | 0.00 | 0.00 | 0.00 | 1020.9 | |
| 20260830134533 | -17 | 309 | 1.6 | 3.2 | 0.00 | 0.00 | 0.00 | 1020.7 | |
| 20260830134028 | -17 | 201 | 6.4 | 8.0 | 0.00 | 0.00 | 0.00 | 1020.7 | |
| 20260830133523 | 28 | 88 | 6.4 | 8.0 | 0.00 | 0.00 | 0.00 | 86 | 1020.6 |
| 20260830133018 | 27 | 173 | 4.8 | 4.8 | 0.00 | 0.00 | 0.00 | 87 | 1020.5 |
| 20260830132514 | 27 | 189 | 3.2 | 4.8 | 0.00 | 0.00 | 0.00 | 87 | 1020.9 |
| 20260830132014 | 27 | 263 | 0.0 | 0.0 | 0.00 | 0.00 | 0.00 | 88 | 1020.5 |
| 20260830131513 | 27 | 9 | 1.6 | 1.6 | 0.00 | 0.00 | 0.00 | 88 | 1020.6 |
| 20260830131008 | 27 | 317 | 0.0 | 0.0 | 0.00 | 0.00 | 0.00 | 88 | 1020.6 |
| 20260830130503 | 27 | 254 | 1.6 | 1.6 | 0.00 | 0.00 | 0.00 | 89 | 1020.6 |
| 20260830130002 | 27 | 1 | 1.6 | 1.6 | 0.00 | 0.00 | 0.00 | 89 | 1020.4 |
| 20260830125458 | 27 | 253 | 0.0 | 0.0 | 0.00 | 0.00 | 0.00 | 89 | 1021.0 |
| 20260830124956 | 27 | 263 | 1.6 | 3.2 | 0.00 | 0.00 | 0.00 | 89 | 1020.5 |
| 20260830124451 | 27 | 308 | 0.0 | 0.0 | 0.00 | 0.00 | 0.00 | 89 | 1020.5 |
| 20260830123947 | 27 | 2 | 1.6 | 1.6 | 0.00 | 0.00 | 0.00 | 89 | 1020.3 |
| 20260830123444 | 27 | 311 | 1.6 | 1.6 | 0.00 | 0.00 | 0.00 | 89 | 1020.5 |
| 20260830122942 | 27 | 287 | 0.0 | 1.6 | 0.00 | 0.00 | 0.00 | 89 | 1020.4 |
| 20260830122441 | 27 | 299 | 0.0 | 0.0 | 0.00 | 0.00 | 0.00 | 89 | 1020.4 |
| 20260830121936 | 26 | 196 | 1.6 | 1.6 | 0.00 | 0.00 | 0.00 | 89 | 1020.3 |
| 20260830121431 | -17 | 316 | 0.0 | 1.6 | 0.00 | 0.00 | 0.00 | 1020.4 | |
| 20260830120926 | -17 | 216 | 1.6 | 1.6 | 0.00 | 0.00 | 0.00 | 1020.3 | |
| 20260830120422 | -17 | 194 | 3.2 | 3.2 | 0.00 | 0.00 | 0.00 | 1020.4 | |
| 20260830115918 | -17 | 228 | 0.0 | 1.6 | 0.00 | 0.00 | 0.00 | 1020.0 | |
| 20260830115414 | -17 | 321 | 0.0 | 1.6 | 0.00 | 0.00 | 0.00 | 1020.1 | |
| 20260830114909 | -17 | 169 | 1.6 | 3.2 | 0.00 | 0.00 | 0.00 | 1020.1 | |
| 20260830114406 | -17 | 206 | 4.8 | 8.0 | 0.00 | 0.00 | 0.00 | 1019.8 | |
| 20260830113905 | -17 | 276 | 1.6 | 3.2 | 0.00 | 0.00 | 0.00 | 1020.1 | |
| 20260830113401 | -17 | 232 | 1.6 | 3.2 | 0.00 | 0.00 | 0.00 | 1020.0 | |
| 20260830112856 | -17 | 234 | 1.6 | 1.6 | 0.00 | 0.00 | 0.00 | 1020.1 | |
| 20260830112352 | -17 | 193 | 4.8 | 4.8 | 0.00 | 0.00 | 0.00 | 1020.1 | |
| 20260830111848 | -17 | 232 | 0.0 | 0.0 | 0.00 | 0.00 | 0.00 | 1019.9 | |
| 20260830111343 | -17 | 242 | 0.0 | 0.0 | 0.00 | 0.00 | 0.00 | 1019.8 | |
| 20260830110843 | -17 | 228 | 0.0 | 0.0 | 0.00 | 0.00 | 0.00 | 1019.6 | |
| 20260830110340 | -17 | 256 | 0.0 | 0.0 | 0.00 | 0.00 | 0.00 | 1019.7 | |
| 20260830105838 | -17 | 295 | 0.0 | 0.0 | 0.00 | 0.00 | 0.00 | 1019.5 | |
| 20260830105335 | -17 | 300 | 0.0 | 0.0 | 0.00 | 0.00 | 0.00 | 1019.8 | |
| 20260830104831 | -17 | 246 | 0.0 | 0.0 | 0.00 | 0.00 | 0.00 | 1019.5 | |
| 20260830104328 | -17 | 143 | 0.0 | 0.0 | 0.00 | 0.00 | 0.00 | 1019.5 | |
| 20260830103826 | -17 | 257 | 0.0 | 0.0 | 0.00 | 0.00 | 0.00 | 1019.6 | |
| 20260830103323 | -17 | 262 | 0.0 | 0.0 | 0.00 | 0.00 | 0.00 | 1019.6 | |
| 20260830102821 | -17 | 251 | 0.0 | 0.0 | 0.00 | 0.00 | 0.00 | 1019.7 | |
| 20260830102317 | -17 | 252 | 0.0 | 0.0 | 0.00 | 0.00 | 0.00 | 1019.5 | |
| 20260830101812 | -17 | 277 | 0.0 | 0.0 | 0.00 | 0.00 | 0.00 | 1019.4 | |
| 20260830101308 | -17 | 247 | 0.0 | 0.0 | 0.00 | 0.00 | 0.00 | 1019.6 | |
| 20260830100806 | -17 | 287 | 1.6 | 1.6 | 0.00 | 0.00 | 0.00 | 1019.5 | |
| 20260830100301 | -17 | 281 | 0.0 | 0.0 | 0.00 | 0.00 | 0.00 | 1019.6 | |
| 20260830095800 | -17 | 288 | 0.0 | 0.0 | 0.00 | 0.00 | 0.00 | 1019.3 | |
| 20260830095256 | -17 | 299 | 0.0 | 0.0 | 0.00 | 0.00 | 0.00 | 1019.5 | |
| 20260830094752 | -17 | 255 | 0.0 | 0.0 | 0.00 | 0.00 | 0.00 | 1019.4 | |
| 20260830094248 | -17 | 273 | 0.0 | 0.0 | 0.00 | 0.00 | 0.00 | 1019.4 | |
| 20260830093743 | -17 | 240 | 0.0 | 0.0 | 0.00 | 0.00 | 0.00 | 1019.8 | |
| 20260830093239 | -17 | 269 | 0.0 | 1.6 | 0.00 | 0.00 | 0.00 | 1019.7 | |
| 20260830092738 | -17 | 226 | 1.6 | 1.6 | 0.00 | 0.00 | 0.00 | 1019.4 | |
| 20260830092235 | -17 | 1 | 0.0 | 1.6 | 0.00 | 0.00 | 0.00 | 1019.5 | |
| 20260830091731 | -17 | 222 | 0.0 | 1.6 | 0.00 | 0.00 | 0.00 | 1019.8 | |
| 20260830091231 | -17 | 103 | 1.6 | 1.6 | 0.00 | 0.00 | 0.00 | 1019.8 | |
| 20260830090730 | -17 | 322 | 1.6 | 1.6 | 0.00 | 0.00 | 0.00 | 1019.7 | |
| 20260830090226 | -17 | 188 | 3.2 | 3.2 | 0.00 | 0.00 | 0.00 | 1019.8 | |
| 20260830085725 | -17 | 239 | 4.8 | 4.8 | 0.00 | 0.00 | 0.00 | 1019.8 | |
| 20260830085221 | -17 | 288 | 1.6 | 3.2 | 0.00 | 0.00 | 0.00 | 1019.9 | |
| 20260830084716 | -17 | 211 | 1.6 | 1.6 | 0.00 | 0.00 | 0.00 | 1019.6 | |
| 20260830084212 | -17 | 288 | 0.0 | 1.6 | 0.00 | 0.00 | 0.00 | 1019.8 | |
| 20260830083706 | -17 | 271 | 0.0 | 0.0 | 0.00 | 0.00 | 0.00 | 1019.6 | |
| 20260830083202 | -17 | 324 | 1.6 | 3.2 | 0.00 | 0.00 | 0.00 | 1019.8 | |
| 20260830082701 | -17 | 338 | 0.0 | 0.0 | 0.00 | 0.00 | 0.00 | 1020.0 | |
| 20260830082157 | -17 | 357 | 0.0 | 1.6 | 0.00 | 0.00 | 0.00 | 1019.9 | |
| 20260830081653 | -17 | 305 | 0.0 | 0.0 | 0.00 | 0.00 | 0.00 | 1020.0 | |
| 20260830081152 | -17 | 16 | 0.0 | 0.0 | 0.00 | 0.00 | 0.00 | 1020.1 | |
| 20260830080647 | -17 | 23 | 0.0 | 1.6 | 0.00 | 0.00 | 0.00 | 1020.1 | |
| 20260830080143 | -17 | 3 | 0.0 | 0.0 | 0.00 | 0.00 | 0.00 | 1020.3 | |
| 20260830075642 | -17 | 332 | 1.6 | 1.6 | 0.00 | 0.00 | 0.00 | 1020.4 | |
| 20260830075137 | -17 | 292 | 0.0 | 0.0 | 0.00 | 0.00 | 0.00 | 1020.4 | |
| 20260830074633 | -17 | 354 | 3.2 | 4.8 | 0.00 | 0.00 | 0.00 | 1020.5 | |
| 20260830074129 | -17 | 32 | 0.0 | 0.0 | 0.00 | 0.00 | 0.00 | 1020.6 | |
| 20260830073625 | -17 | 285 | 1.6 | 1.6 | 0.00 | 0.00 | 0.00 | 1020.4 | |
| 20260830073120 | -17 | 22 | 0.0 | 0.0 | 0.00 | 0.00 | 0.00 | 1020.7 | |
| 20260830072615 | -17 | 14 | 1.6 | 3.2 | 0.00 | 0.00 | 0.00 | 1020.8 | |
| 20260830072115 | -17 | 323 | 0.0 | 0.0 | 0.00 | 0.00 | 0.00 | 1020.7 | |
| 20260830071610 | -17 | 306 | 0.0 | 0.0 | 0.00 | 0.00 | 0.00 | 1021.0 | |
| 20260830071108 | -17 | 333 | 0.0 | 0.0 | 0.00 | 0.00 | 0.00 | 1021.0 | |
| 20260830070603 | -17 | 343 | 1.6 | 1.6 | 0.00 | 0.00 | 0.00 | 1020.9 | |
| 20260830070058 | -17 | 12 | 0.0 | 1.6 | 0.00 | 0.00 | 0.00 | 1020.9 | |
| 20260830065557 | 27 | 4 | 3.2 | 3.2 | 0.00 | 0.00 | 0.00 | 88 | 1020.7 |
| 20260830065055 | 27 | 104 | 0.0 | 0.0 | 0.00 | 0.00 | 0.00 | 88 | 1020.9 |
| 20260830064550 | 27 | 71 | 0.0 | 1.6 | 0.00 | 0.00 | 0.00 | 88 | 1021.0 |
| 20260830064045 | 27 | 353 | 0.0 | 1.6 | 0.00 | 0.00 | 0.00 | 88 | 1020.9 |
| 20260830063540 | 26 | 5 | 0.0 | 1.6 | 0.00 | 0.00 | 0.00 | 89 | 1021.0 |
| 20260830063039 | 26 | 282 | 0.0 | 0.0 | 0.00 | 0.00 | 0.00 | 89 | 1021.0 |
| 20260830062538 | 26 | 273 | 0.0 | 1.6 | 0.00 | 0.00 | 0.00 | 89 | 1021.2 |
| 20260830062033 | 26 | 327 | 0.0 | 0.0 | 0.00 | 0.00 | 0.00 | 89 | 1021.2 |
| 20260830061528 | 26 | 319 | 0.0 | 0.0 | 0.00 | 0.00 | 0.00 | 90 | 1021.3 |
| 20260830061024 | 26 | 47 | 0.0 | 1.6 | 0.00 | 0.00 | 0.00 | 90 | 1021.6 |
| 20260830060520 | 26 | 64 | 1.6 | 1.6 | 0.00 | 0.00 | 0.00 | 90 | 1021.3 |
| 20260830060017 | 26 | 90 | 1.6 | 1.6 | 0.00 | 0.00 | 0.00 | 90 | 1021.5 |
| 20260830055512 | 26 | 332 | 0.0 | 1.6 | 0.00 | 2.64 | 2.64 | 90 | 1021.6 |
| 20260830055008 | 26 | 333 | 0.0 | 0.0 | 0.00 | 2.64 | 2.64 | 90 | 1021.5 |
| 20260830054503 | 26 | 6 | 0.0 | 0.0 | 0.00 | 2.64 | 2.64 | 91 | 1021.5 |
| 20260830053959 | 26 | 333 | 0.0 | 0.0 | 0.00 | 2.64 | 2.64 | 91 | 1021.6 |
| 20260830053454 | 27 | 310 | 0.0 | 0.0 | 0.00 | 2.64 | 2.64 | 91 | 1021.8 |
| 20260830052952 | 27 | 310 | 0.0 | 0.0 | 0.00 | 2.64 | 2.64 | 90 | 1021.8 |
| 20260830052448 | 27 | 296 | 0.0 | 0.0 | 0.00 | 2.64 | 2.64 | 90 | 1021.6 |
| 20260830051943 | 27 | 292 | 0.0 | 0.0 | 0.00 | 2.64 | 2.64 | 90 | 1021.6 |
| 20260830051438 | 27 | 327 | 0.0 | 0.0 | 0.00 | 2.64 | 2.64 | 90 | 1021.9 |
| 20260830050938 | 27 | 327 | 0.0 | 0.0 | 0.00 | 2.64 | 2.64 | 90 | 1021.7 |
| 20260830050433 | 27 | 29 | 0.0 | 0.0 | 0.00 | 2.64 | 2.64 | 90 | 1021.6 |
| 20260830045931 | 27 | 329 | 0.0 | 0.0 | 0.00 | 2.64 | 2.64 | 90 | 1021.8 |
| 20260830045426 | 27 | 14 | 1.6 | 1.6 | 0.00 | 2.64 | 2.64 | 90 | 1021.8 |
| 20260830044925 | 27 | 87 | 0.0 | 1.6 | 0.00 | 2.64 | 2.64 | 90 | 1021.8 |
| 20260830044421 | 27 | 29 | 1.6 | 1.6 | 0.00 | 2.64 | 2.64 | 90 | 1021.6 |
| 20260830043916 | 27 | 313 | 0.0 | 0.0 | 0.00 | 2.64 | 2.64 | 90 | 1021.8 |
| 20260830043411 | 27 | 27 | 0.0 | 0.0 | 0.00 | 2.64 | 2.64 | 90 | 1021.8 |
| 20260830042909 | 27 | 290 | 0.0 | 0.0 | 0.00 | 2.64 | 2.64 | 90 | 1021.9 |
| 20260830042403 | 27 | 351 | 0.0 | 0.0 | 0.00 | 2.64 | 2.64 | 90 | 1021.9 |
| 20260830041902 | 27 | 267 | 1.6 | 1.6 | 0.00 | 2.64 | 2.64 | 90 | 1022.0 |
| 20260830041401 | 27 | 30 | 1.6 | 8.0 | 0.00 | 2.64 | 2.64 | 90 | 1022.0 |
| 20260830040857 | 27 | 66 | 1.6 | 3.2 | 0.00 | 2.64 | 2.64 | 90 | 1022.0 |
| 20260830040353 | 27 | 340 | 0.0 | 0.0 | 0.00 | 2.64 | 2.64 | 90 | 1022.3 |
| 20260830035852 | 27 | 45 | 1.6 | 3.2 | 0.00 | 2.64 | 2.64 | 91 | 1021.9 |
| 20260830035351 | 26 | 4 | 0.0 | 1.6 | 0.00 | 2.64 | 2.64 | 91 | 1021.9 |
| 20260830034847 | 27 | 310 | 0.0 | 0.0 | 0.00 | 2.64 | 2.64 | 91 | 1021.9 |
| 20260830034342 | 26 | 309 | 0.0 | 0.0 | 0.00 | 2.64 | 2.64 | 91 | 1021.9 |
| 20260830033838 | 27 | 68 | 0.0 | 0.0 | 0.00 | 2.64 | 2.64 | 91 | 1021.8 |
| 20260830033337 | 27 | 316 | 0.0 | 0.0 | 0.00 | 2.64 | 2.64 | 91 | 1022.0 |
| 20260830032832 | 27 | 62 | 0.0 | 0.0 | 0.00 | 2.64 | 2.64 | 91 | 1021.5 |
| 20260830032326 | 27 | 309 | 0.0 | 0.0 | 0.00 | 2.64 | 2.64 | 91 | 1021.7 |
| 20260830031822 | 27 | 305 | 0.0 | 0.0 | 0.00 | 2.64 | 2.64 | 91 | 1021.5 |
| 20260830031318 | 27 | 72 | 0.0 | 0.0 | 0.00 | 2.64 | 2.64 | 92 | 1021.4 |
| 20260830030813 | 27 | 269 | 0.0 | 0.0 | 0.00 | 2.64 | 2.64 | 91 | 1021.6 |
| 20260830030309 | 27 | 2 | 0.0 | 0.0 | 0.00 | 2.64 | 2.64 | 91 | 1021.4 |